createdAt,value
2018-06-27T00:01:00.967Z,53.45
2018-06-27T00:03:28.587Z,53.86
2018-06-27T00:05:56.083Z,54.16
2018-06-27T00:08:23.548Z,54.18
2018-06-27T00:10:51.056Z,54.11
2018-06-27T00:13:18.529Z,54.14
2018-06-27T00:15:45.926Z,54.49
2018-06-27T00:18:13.416Z,55.02
2018-06-27T00:20:40.859Z,55.28
2018-06-27T00:23:08.317Z,55.82
2018-06-27T00:25:35.707Z,55.92
2018-06-27T00:28:03.174Z,56.43
2018-06-27T00:30:30.643Z,56.54
2018-06-27T00:32:58.134Z,56.59
2018-06-27T00:35:25.587Z,56.63
2018-06-27T00:37:53.038Z,56.59
2018-06-27T00:40:20.456Z,56.60
2018-06-27T00:42:47.914Z,56.75
2018-06-27T00:45:15.348Z,56.68
2018-06-27T00:47:42.776Z,56.40
2018-06-27T00:50:10.238Z,56.74
2018-06-27T00:52:37.773Z,56.84
2018-06-27T00:55:05.186Z,56.70
2018-06-27T00:57:32.594Z,56.65
2018-06-27T01:00:00.014Z,56.85
2018-06-27T01:02:27.458Z,56.99
2018-06-27T01:04:54.928Z,56.96
2018-06-27T01:07:23.144Z,57.12
2018-06-27T01:09:50.728Z,57.29
2018-06-27T01:12:18.416Z,57.43
2018-06-27T01:14:45.873Z,57.27
2018-06-27T01:17:13.304Z,57.13
2018-06-27T01:19:40.738Z,57.08
2018-06-27T01:22:08.209Z,57.37
2018-06-27T01:24:35.629Z,57.37
2018-06-27T01:27:03.085Z,57.37
2018-06-27T01:29:30.541Z,57.45
2018-06-27T01:31:58.028Z,57.50
2018-06-27T01:34:25.456Z,57.59
2018-06-27T01:36:52.960Z,57.96
2018-06-27T01:39:20.406Z,58.05
2018-06-27T01:41:47.836Z,58.11
2018-06-27T01:44:15.267Z,58.11
2018-06-27T01:46:42.711Z,58.39
2018-06-27T01:49:10.188Z,58.34
2018-06-27T01:51:37.798Z,58.75
2018-06-27T01:54:05.234Z,58.81
2018-06-27T01:56:32.702Z,58.68
2018-06-27T01:59:00.206Z,58.60
2018-06-27T02:01:27.778Z,58.60
2018-06-27T02:03:55.220Z,58.55
2018-06-27T02:06:22.686Z,58.61
2018-06-27T02:08:50.177Z,58.57
2018-06-27T02:11:17.635Z,58.52
2018-06-27T02:13:45.086Z,58.60
2018-06-27T02:16:12.534Z,58.68
2018-06-27T02:18:40.024Z,58.87
2018-06-27T02:21:08.214Z,59.04
2018-06-27T02:23:35.660Z,59.16
2018-06-27T02:26:03.117Z,59.20
2018-06-27T02:28:30.530Z,59.20
2018-06-27T02:30:57.991Z,59.06
2018-06-27T02:33:25.438Z,59.05
2018-06-27T02:35:52.936Z,58.98
2018-06-27T02:38:20.327Z,58.95
2018-06-27T02:40:47.764Z,58.94
2018-06-27T02:43:15.186Z,59.18
2018-06-27T02:45:42.576Z,59.80
2018-06-27T02:48:10.074Z,60.13
2018-06-27T02:50:37.490Z,60.02
2018-06-27T02:53:04.903Z,59.97
2018-06-27T02:55:32.349Z,59.90
2018-06-27T02:57:59.860Z,60.00
2018-06-27T03:00:27.333Z,59.82
2018-06-27T03:02:54.739Z,59.79
2018-06-27T03:05:22.238Z,59.60
2018-06-27T03:07:49.682Z,59.71
2018-06-27T03:10:17.251Z,59.76
2018-06-27T03:12:44.787Z,59.61
2018-06-27T03:15:12.288Z,59.58
2018-06-27T03:17:39.763Z,59.39
2018-06-27T03:20:07.252Z,59.58
2018-06-27T03:22:34.685Z,59.61
2018-06-27T03:25:02.083Z,59.56
2018-06-27T03:27:29.548Z,59.65
2018-06-27T03:29:57.069Z,59.82
2018-06-27T03:32:24.507Z,59.98
2018-06-27T03:34:52.012Z,60.01
2018-06-27T03:37:19.475Z,60.29
2018-06-27T03:39:47.124Z,60.53
2018-06-27T03:42:14.667Z,60.71
2018-06-27T03:44:42.091Z,60.57
2018-06-27T03:47:09.600Z,60.35
2018-06-27T03:49:37.154Z,60.16
2018-06-27T03:52:04.619Z,60.21
2018-06-27T03:54:32.157Z,60.17
2018-06-27T03:56:59.593Z,60.39
2018-06-27T03:59:27.003Z,60.50
2018-06-27T04:01:54.411Z,60.21
2018-06-27T04:04:21.883Z,60.17
2018-06-27T04:06:49.366Z,60.30
2018-06-27T04:09:16.789Z,60.31
2018-06-27T04:11:44.202Z,60.34
2018-06-27T04:14:11.723Z,60.17
2018-06-27T04:16:39.281Z,60.22
2018-06-27T04:19:06.786Z,60.21
2018-06-27T04:21:34.213Z,60.33
2018-06-27T04:24:01.718Z,60.17
2018-06-27T04:26:29.274Z,60.04
2018-06-27T04:28:56.735Z,60.18
2018-06-27T04:31:24.355Z,59.81
2018-06-27T04:33:51.906Z,59.56
2018-06-27T04:36:19.407Z,59.97
2018-06-27T04:38:46.834Z,59.61
2018-06-27T04:41:14.300Z,59.63
2018-06-27T04:43:41.813Z,59.21
2018-06-27T04:46:09.311Z,58.90
2018-06-27T04:48:36.783Z,58.60
2018-06-27T04:51:04.282Z,58.76
2018-06-27T04:53:31.764Z,58.43
2018-06-27T04:55:59.366Z,58.39
2018-06-27T04:58:26.823Z,58.21
2018-06-27T05:00:54.226Z,57.96
2018-06-27T05:03:21.663Z,57.54
2018-06-27T05:05:49.072Z,57.23
2018-06-27T05:08:16.501Z,56.95
2018-06-27T05:10:43.957Z,56.84
2018-06-27T05:13:11.517Z,56.92
2018-06-27T05:15:38.932Z,56.89
2018-06-27T05:18:06.375Z,56.44
2018-06-27T05:20:33.866Z,56.13
2018-06-27T05:23:01.320Z,55.96
2018-06-27T05:25:28.786Z,55.70
2018-06-27T05:27:56.242Z,55.46
2018-06-27T05:30:23.670Z,55.50
2018-06-27T05:32:51.117Z,55.48
2018-06-27T05:35:18.603Z,55.45
2018-06-27T05:37:46.032Z,55.44
2018-06-27T05:40:13.452Z,55.31
2018-06-27T05:42:40.970Z,55.78
2018-06-27T05:45:08.383Z,55.88
2018-06-27T05:47:35.866Z,55.55
2018-06-27T05:50:03.510Z,55.08
2018-06-27T05:52:30.993Z,55.14
2018-06-27T05:54:58.434Z,55.05
2018-06-27T05:57:25.875Z,55.23
2018-06-27T05:59:53.317Z,55.15
2018-06-27T06:02:20.831Z,54.93
2018-06-27T06:04:48.312Z,55.06
2018-06-27T06:07:15.840Z,54.91
2018-06-27T06:09:43.288Z,54.77
2018-06-27T06:12:10.780Z,54.82
2018-06-27T06:14:38.416Z,54.71
2018-06-27T06:17:05.881Z,54.99
2018-06-27T06:19:33.371Z,54.69
2018-06-27T06:22:00.942Z,54.39
2018-06-27T06:24:28.471Z,54.69
2018-06-27T06:26:55.923Z,54.67
2018-06-27T06:29:23.395Z,54.58
2018-06-27T06:31:51.347Z,54.69
2018-06-27T06:34:18.879Z,55.11
2018-06-27T06:36:46.296Z,55.43
2018-06-27T06:39:13.933Z,55.37
2018-06-27T06:41:41.381Z,55.21
2018-06-27T06:44:08.866Z,56.09
2018-06-27T06:46:36.340Z,56.00
2018-06-27T06:49:03.812Z,54.84
2018-06-27T06:51:31.325Z,54.03
2018-06-27T06:53:58.918Z,54.08
2018-06-27T06:56:26.476Z,53.30
2018-06-27T06:58:53.956Z,52.89
2018-06-27T07:01:21.618Z,52.13
2018-06-27T07:03:49.055Z,52.00
2018-06-27T07:06:16.552Z,52.00
2018-06-27T07:08:44.682Z,51.59
2018-06-27T07:11:12.295Z,51.13
2018-06-27T07:13:39.755Z,51.58
2018-06-27T07:16:07.146Z,52.00
2018-06-27T07:18:34.720Z,51.16
2018-06-27T07:21:02.194Z,50.29
2018-06-27T07:23:29.740Z,49.81
2018-06-27T07:25:57.183Z,49.60
2018-06-27T07:28:24.714Z,49.70
2018-06-27T07:30:52.149Z,50.24
2018-06-27T07:33:19.584Z,50.41
2018-06-27T07:35:47.047Z,50.17
2018-06-27T07:38:14.515Z,50.16
2018-06-27T07:40:41.942Z,49.51
2018-06-27T07:43:09.468Z,48.10
2018-06-27T07:45:37.330Z,46.87
2018-06-27T07:48:04.835Z,46.15
2018-06-27T07:50:32.315Z,45.68
2018-06-27T07:52:59.754Z,45.61
2018-06-27T07:55:27.217Z,45.65
2018-06-27T07:57:54.751Z,45.99
2018-06-27T08:00:22.170Z,45.97
2018-06-27T08:02:49.734Z,46.57
2018-06-27T08:05:17.200Z,45.96
2018-06-27T08:07:44.704Z,44.55
2018-06-27T08:10:12.267Z,43.12
2018-06-27T08:12:40.620Z,42.70
2018-06-27T08:15:08.064Z,42.99
2018-06-27T08:17:35.590Z,42.73
2018-06-27T08:20:03.033Z,42.46
2018-06-27T08:22:30.537Z,42.60
2018-06-27T08:24:57.999Z,42.42
2018-06-27T08:27:25.442Z,42.48
2018-06-27T08:29:52.920Z,41.85
2018-06-27T08:32:20.390Z,41.42
2018-06-27T08:34:47.808Z,42.75
2018-06-27T08:37:15.199Z,43.04
2018-06-27T08:39:42.633Z,43.52
2018-06-27T08:42:10.324Z,42.68
2018-06-27T08:44:37.776Z,42.38
2018-06-27T08:47:05.220Z,42.38
2018-06-27T08:49:32.675Z,42.21
2018-06-27T08:52:00.635Z,42.22
2018-06-27T08:54:28.077Z,42.59
2018-06-27T08:56:56.465Z,43.54
2018-06-27T08:59:23.905Z,43.05
2018-06-27T09:01:51.988Z,43.17
2018-06-27T09:04:19.381Z,42.32
2018-06-27T09:06:46.836Z,42.13
2018-06-27T09:09:13.779Z,43.00
2018-06-27T09:11:40.726Z,42.70
2018-06-27T09:14:07.842Z,42.34
2018-06-27T09:16:35.923Z,41.93
2018-06-27T09:19:03.425Z,42.37
2018-06-27T09:21:31.078Z,42.65
2018-06-27T09:24:01.620Z,43.06
2018-06-27T09:26:29.108Z,43.45
2018-06-27T09:28:56.576Z,43.50
2018-06-27T09:31:24.034Z,43.33
2018-06-27T09:33:51.489Z,43.20
2018-06-27T09:36:19.436Z,43.76
2018-06-27T09:38:46.871Z,43.69
2018-06-27T09:41:14.311Z,44.11
2018-06-27T09:43:41.730Z,44.01
2018-06-27T09:46:08.756Z,43.67
2018-06-27T09:48:36.217Z,43.27
2018-06-27T09:51:03.810Z,43.61
2018-06-27T09:53:31.270Z,43.45
2018-06-27T09:55:58.727Z,42.58
2018-06-27T09:58:26.143Z,41.85
2018-06-27T10:00:53.663Z,41.94
2018-06-27T10:03:22.209Z,41.86
2018-06-27T10:05:49.675Z,41.61
2018-06-27T10:08:17.120Z,41.22
2018-06-27T10:10:44.161Z,40.95
2018-06-27T10:13:11.564Z,40.75
2018-06-27T10:15:39.032Z,40.37
2018-06-27T10:18:06.491Z,40.21
2018-06-27T10:20:34.012Z,40.04
2018-06-27T10:23:01.514Z,39.57
2018-06-27T10:25:29.798Z,40.33
2018-06-27T10:27:57.418Z,39.53
2018-06-27T10:30:24.847Z,38.79
2018-06-27T10:32:52.433Z,38.61
2018-06-27T10:35:19.865Z,38.58
2018-06-27T10:37:47.345Z,38.21
2018-06-27T10:40:14.835Z,38.11
2018-06-27T10:42:42.342Z,38.71
2018-06-27T10:45:09.779Z,38.08
2018-06-27T10:47:37.337Z,37.78
2018-06-27T10:50:04.869Z,36.93
2018-06-27T10:52:32.355Z,36.84
2018-06-27T10:54:59.818Z,36.87
2018-06-27T10:57:27.315Z,36.54
2018-06-27T10:59:54.777Z,36.90
2018-06-27T11:02:22.260Z,36.95
2018-06-27T11:04:49.706Z,36.88
2018-06-27T11:07:17.187Z,36.48
2018-06-27T11:09:44.675Z,36.15
2018-06-27T11:12:12.128Z,36.26
2018-06-27T11:14:39.640Z,36.36
2018-06-27T11:17:07.333Z,36.22
2018-06-27T11:19:34.841Z,35.67
2018-06-27T11:22:02.298Z,35.89
2018-06-27T11:24:29.855Z,35.66
2018-06-27T11:26:57.382Z,35.63
2018-06-27T11:29:24.933Z,35.49
2018-06-27T11:31:52.493Z,35.90
2018-06-27T11:34:20.036Z,35.76
2018-06-27T11:36:47.485Z,36.15
2018-06-27T11:39:15.048Z,35.69
2018-06-27T11:41:42.599Z,35.39
2018-06-27T11:44:10.074Z,35.31
2018-06-27T11:46:37.707Z,35.08
2018-06-27T11:49:05.850Z,35.52
2018-06-27T11:51:33.396Z,35.76
2018-06-27T11:54:00.790Z,35.28
2018-06-27T11:56:28.269Z,35.57
2018-06-27T11:58:55.784Z,35.23
2018-06-27T12:01:23.420Z,35.22
2018-06-27T12:03:50.943Z,35.38
2018-06-27T12:06:18.453Z,35.53
2018-06-27T12:08:46.047Z,35.41
2018-06-27T12:11:13.540Z,35.47
2018-06-27T12:13:40.982Z,35.27
2018-06-27T12:16:08.431Z,35.30
2018-06-27T12:18:35.934Z,35.08
2018-06-27T12:21:03.407Z,35.19
2018-06-27T12:23:30.884Z,34.95
2018-06-27T12:25:58.348Z,34.95
2018-06-27T12:28:25.846Z,35.38
2018-06-27T12:30:53.345Z,35.59
2018-06-27T12:33:20.806Z,36.03
2018-06-27T12:35:48.317Z,34.83
2018-06-27T12:38:15.795Z,35.06
2018-06-27T12:40:43.238Z,35.00
2018-06-27T12:43:10.688Z,35.51
2018-06-27T12:45:38.118Z,35.59
2018-06-27T12:48:05.571Z,35.58
2018-06-27T12:50:33.058Z,34.93
2018-06-27T12:53:00.538Z,35.23
2018-06-27T12:55:28.084Z,34.72
2018-06-27T12:57:55.494Z,34.46
2018-06-27T13:00:23.799Z,34.34
2018-06-27T13:02:51.583Z,34.32
2018-06-27T13:05:18.978Z,33.70
2018-06-27T13:07:46.466Z,33.87
2018-06-27T13:10:13.981Z,33.98
2018-06-27T13:12:41.651Z,33.77
2018-06-27T13:15:09.198Z,33.68
2018-06-27T13:17:37.080Z,33.76
2018-06-27T13:20:04.507Z,33.17
2018-06-27T13:22:31.919Z,33.14
2018-06-27T13:24:59.521Z,33.04
2018-06-27T13:27:26.999Z,33.10
2018-06-27T13:29:55.076Z,33.28
2018-06-27T13:32:22.528Z,33.11
2018-06-27T13:34:50.005Z,32.92
2018-06-27T13:37:17.456Z,32.41
2018-06-27T13:39:44.913Z,32.37
2018-06-27T13:42:12.501Z,32.50
2018-06-27T13:44:40.033Z,32.24
2018-06-27T13:47:07.567Z,31.95
2018-06-27T13:49:35.185Z,31.29
2018-06-27T13:52:02.657Z,31.10
2018-06-27T13:54:30.184Z,31.41
2018-06-27T13:56:57.638Z,30.92
2018-06-27T13:59:25.086Z,30.82
2018-06-27T14:01:52.534Z,30.83
2018-06-27T14:04:20.012Z,30.53
2018-06-27T14:06:47.553Z,30.00
2018-06-27T14:09:15.163Z,30.05
2018-06-27T14:11:42.596Z,30.70
2018-06-27T14:14:11.729Z,30.80
2018-06-27T14:16:39.185Z,30.88
2018-06-27T14:19:06.828Z,30.54
2018-06-27T14:21:34.349Z,30.55
2018-06-27T14:24:01.823Z,30.40
2018-06-27T14:26:29.340Z,30.22
2018-06-27T14:28:56.831Z,30.33
2018-06-27T14:31:24.483Z,30.46
2018-06-27T14:33:52.201Z,30.51
2018-06-27T14:36:19.599Z,31.14
2018-06-27T14:38:47.093Z,30.95
2018-06-27T14:41:14.541Z,30.63
2018-06-27T14:43:42.074Z,30.31
2018-06-27T14:46:09.687Z,30.65
2018-06-27T14:48:37.279Z,30.64
2018-06-27T14:51:04.839Z,30.47
2018-06-27T14:53:32.314Z,30.23
2018-06-27T14:55:59.805Z,30.75
2018-06-27T14:58:27.280Z,30.64
2018-06-27T15:00:54.838Z,30.37
2018-06-27T15:03:22.475Z,30.87
2018-06-27T15:05:49.917Z,31.38
2018-06-27T15:08:17.455Z,31.21
2018-06-27T15:10:45.143Z,31.08
2018-06-27T15:13:12.611Z,31.21
2018-06-27T15:15:40.096Z,31.37
2018-06-27T15:18:07.604Z,30.75
2018-06-27T15:20:35.292Z,30.80
2018-06-27T15:23:02.687Z,31.45
2018-06-27T15:25:30.184Z,30.84
2018-06-27T15:27:57.668Z,30.76
2018-06-27T15:30:26.055Z,30.24
2018-06-27T15:32:53.500Z,30.11
2018-06-27T15:35:21.160Z,30.29
2018-06-27T15:37:48.648Z,30.34
2018-06-27T15:40:16.132Z,30.10
2018-06-27T15:42:43.576Z,30.43
2018-06-27T15:45:11.095Z,30.44
2018-06-27T15:47:38.535Z,30.38
2018-06-27T15:50:06.014Z,30.64
2018-06-27T15:52:33.477Z,30.53
2018-06-27T15:55:01.044Z,30.99
2018-06-27T15:57:28.560Z,31.01
2018-06-27T15:59:56.221Z,31.58
2018-06-27T16:02:24.155Z,31.54
2018-06-27T16:04:51.632Z,30.89
2018-06-27T16:07:19.211Z,31.01
2018-06-27T16:09:46.819Z,30.68
2018-06-27T16:12:14.386Z,30.82
2018-06-27T16:14:42.746Z,31.05
2018-06-27T16:17:10.304Z,31.09
2018-06-27T16:19:37.760Z,30.71
2018-06-27T16:22:05.308Z,30.64
2018-06-27T16:24:32.921Z,30.83
2018-06-27T16:27:00.456Z,30.61
2018-06-27T16:29:28.053Z,30.27
2018-06-27T16:34:29.737Z,31.24
2018-06-27T16:36:58.231Z,30.86
2018-06-27T16:39:25.929Z,31.40
2018-06-27T16:41:53.460Z,31.85
2018-06-27T16:44:21.132Z,31.84
2018-06-27T16:46:48.899Z,32.00
2018-06-27T16:49:16.733Z,31.94
2018-06-27T16:51:44.472Z,32.25
2018-06-27T16:54:12.078Z,32.47
2018-06-27T16:56:39.595Z,32.10
2018-06-27T16:59:07.085Z,32.01
2018-06-27T17:01:34.668Z,32.11
2018-06-27T17:04:02.082Z,31.91
2018-06-27T17:06:30.710Z,31.70
2018-06-27T17:08:58.246Z,31.70
2018-06-27T17:11:27.795Z,31.58
2018-06-27T17:13:55.248Z,32.34
2018-06-27T17:16:22.728Z,32.58
2018-06-27T17:18:50.372Z,32.29
2018-06-27T17:21:17.800Z,31.67
2018-06-27T17:23:45.386Z,31.83
2018-06-27T17:26:13.722Z,31.57
2018-06-27T17:28:41.196Z,31.65
2018-06-27T17:31:08.824Z,31.69
2018-06-27T17:33:36.395Z,31.37
2018-06-27T17:36:04.108Z,31.35
2018-06-27T17:38:31.719Z,31.73
2018-06-27T17:40:59.178Z,31.46
2018-06-27T17:43:26.615Z,31.55
2018-06-27T17:45:54.080Z,31.51
2018-06-27T17:48:21.695Z,31.54
2018-06-27T17:50:49.184Z,31.41
2018-06-27T17:53:16.634Z,31.46
2018-06-27T17:55:44.112Z,31.41
2018-06-27T17:58:11.932Z,32.04
2018-06-27T18:00:41.637Z,32.21
2018-06-27T18:03:09.108Z,31.64
2018-06-27T18:05:36.628Z,32.01
2018-06-27T18:08:04.150Z,31.92
2018-06-27T18:10:31.631Z,32.06
2018-06-27T18:12:59.140Z,32.61
2018-06-27T18:15:29.007Z,33.45
2018-06-27T18:17:56.544Z,33.59
2018-06-27T18:20:25.370Z,33.88
2018-06-27T18:22:53.118Z,34.30
2018-06-27T18:25:20.513Z,34.86
2018-06-27T18:27:47.964Z,35.40
2018-06-27T18:30:15.386Z,35.42
2018-06-27T18:32:43.808Z,35.74
2018-06-27T18:35:11.560Z,35.97
2018-06-27T18:37:40.224Z,36.45
2018-06-27T18:40:10.509Z,36.59
2018-06-27T18:42:38.876Z,36.83
2018-06-27T18:45:06.378Z,37.25
2018-06-27T18:47:33.932Z,37.73
2018-06-27T18:50:02.359Z,38.14
2018-06-27T18:52:30.514Z,38.59
2018-06-27T18:54:58.033Z,39.00
2018-06-27T18:57:25.486Z,39.55
2018-06-27T18:59:52.967Z,40.09
2018-06-27T19:02:20.486Z,40.72
2018-06-27T19:04:47.952Z,41.04
2018-06-27T19:07:15.410Z,41.17
2018-06-27T19:09:42.904Z,41.24
2018-06-27T19:12:11.123Z,40.96
2018-06-27T19:14:38.609Z,40.70
2018-06-27T19:17:06.917Z,40.72
2018-06-27T19:19:34.448Z,41.06
2018-06-27T19:22:01.954Z,41.20
2018-06-27T19:24:30.214Z,41.57
2018-06-27T19:26:58.361Z,41.65
2018-06-27T19:29:25.872Z,41.87
2018-06-27T19:31:53.380Z,42.03
2018-06-27T19:34:21.015Z,42.38
2018-06-27T19:36:48.582Z,42.45
2018-06-27T19:39:16.032Z,42.88
2018-06-27T19:41:43.470Z,43.43
2018-06-27T19:44:11.006Z,43.70
2018-06-27T19:46:39.664Z,44.23
2018-06-27T19:49:08.194Z,44.02
2018-06-27T19:51:36.757Z,44.01
2018-06-27T19:54:04.239Z,43.71
2018-06-27T19:56:31.677Z,43.18
2018-06-27T19:58:59.100Z,42.80
2018-06-27T20:01:26.531Z,42.63
2018-06-27T20:03:53.980Z,42.56
2018-06-27T20:06:21.445Z,42.45
2018-06-27T20:08:48.943Z,42.41
2018-06-27T20:11:16.410Z,42.26
2018-06-27T20:13:43.837Z,42.29
2018-06-27T20:16:11.254Z,41.98
2018-06-27T20:18:38.724Z,41.89
2018-06-27T20:21:06.258Z,41.76
2018-06-27T20:23:33.675Z,41.64
2018-06-27T20:26:01.259Z,41.66
2018-06-27T20:28:28.693Z,42.00
2018-06-27T20:30:56.111Z,42.93
2018-06-27T20:33:23.570Z,43.06
2018-06-27T20:35:50.982Z,43.45
2018-06-27T20:38:18.456Z,43.60
2018-06-27T20:40:45.920Z,43.75
2018-06-27T20:43:13.345Z,43.81
2018-06-27T20:45:40.917Z,44.14
2018-06-27T20:48:08.366Z,44.29
2018-06-27T20:50:35.798Z,44.28
2018-06-27T20:53:03.243Z,44.17
2018-06-27T20:55:30.845Z,43.95
2018-06-27T20:57:58.288Z,43.59
2018-06-27T21:00:25.758Z,43.67
2018-06-27T21:02:53.223Z,43.72
2018-06-27T21:05:20.714Z,43.97
2018-06-27T21:07:48.192Z,44.40
2018-06-27T21:10:15.687Z,44.88
2018-06-27T21:12:43.180Z,45.07
2018-06-27T21:15:10.699Z,45.26
2018-06-27T21:17:38.550Z,45.36
2018-06-27T21:20:05.978Z,45.08
2018-06-27T21:22:33.460Z,45.31
2018-06-27T21:25:00.990Z,45.56
2018-06-27T21:27:28.531Z,46.10
2018-06-27T21:29:56.040Z,46.71
2018-06-27T21:32:23.513Z,46.82
2018-06-27T21:34:50.982Z,46.79
2018-06-27T21:37:18.442Z,46.85
2018-06-27T21:39:45.844Z,47.13
2018-06-27T21:42:14.271Z,47.40
2018-06-27T21:44:41.711Z,47.49
2018-06-27T21:47:09.286Z,47.71
2018-06-27T21:49:36.768Z,47.79
2018-06-27T21:52:04.413Z,47.47
2018-06-27T21:54:31.924Z,46.60
2018-06-27T21:56:59.490Z,46.04
2018-06-27T21:59:27.101Z,45.39
2018-06-27T22:01:54.596Z,45.06
2018-06-27T22:04:22.131Z,45.36
2018-06-27T22:06:49.610Z,45.23
2018-06-27T22:09:17.316Z,45.99
2018-06-27T22:11:44.942Z,46.27
2018-06-27T22:14:12.412Z,45.94
2018-06-27T22:16:39.914Z,45.36
2018-06-27T22:19:07.627Z,44.82
2018-06-27T22:21:35.240Z,44.58
2018-06-27T22:24:02.711Z,44.54
2018-06-27T22:26:30.174Z,44.56
2018-06-27T22:28:57.649Z,45.10
2018-06-27T22:31:25.132Z,45.34
2018-06-27T22:33:52.639Z,45.31
2018-06-27T22:36:20.067Z,45.45
2018-06-27T22:38:47.655Z,45.56
2018-06-27T22:41:15.056Z,45.74
2018-06-27T22:43:42.516Z,45.99
2018-06-27T22:46:10.744Z,46.02
2018-06-27T22:48:38.205Z,45.88
2018-06-27T22:51:05.791Z,45.84
2018-06-27T22:53:33.368Z,45.71
2018-06-27T22:56:00.912Z,45.58
2018-06-27T22:58:28.353Z,45.60
2018-06-27T23:00:55.789Z,45.31
2018-06-27T23:03:23.223Z,45.46
2018-06-27T23:05:50.671Z,45.49
2018-06-27T23:08:18.245Z,45.73
2018-06-27T23:10:45.690Z,45.91
2018-06-27T23:13:13.144Z,45.94
2018-06-27T23:15:40.562Z,45.67
2018-06-27T23:18:08.048Z,45.54
2018-06-27T23:20:36.165Z,45.58
2018-06-27T23:23:03.622Z,45.53
2018-06-27T23:25:31.021Z,45.68
2018-06-27T23:27:58.452Z,45.57
2018-06-27T23:30:26.031Z,45.63
2018-06-27T23:32:53.434Z,45.75
2018-06-27T23:35:20.861Z,45.98
2018-06-27T23:37:48.311Z,46.02
2018-06-27T23:40:15.739Z,45.75
2018-06-27T23:42:43.164Z,45.50
2018-06-27T23:45:10.623Z,45.40
2018-06-27T23:47:38.287Z,45.14
2018-06-27T23:50:05.739Z,45.27
2018-06-27T23:52:33.203Z,45.46
2018-06-27T23:55:00.693Z,45.62
2018-06-27T23:57:28.178Z,45.80
2018-06-27T23:59:55.665Z,45.54
